createdAt,value
2022-11-19T00:00:42.993Z,5.11
2022-11-19T00:02:14.293Z,5.33
2022-11-19T00:03:48.774Z,5.46
2022-11-19T00:05:24.032Z,5.18
2022-11-19T00:06:55.420Z,5.46
2022-11-19T00:08:27.009Z,5.98
2022-11-19T00:09:58.270Z,5.75
2022-11-19T00:11:29.589Z,5.88
2022-11-19T00:13:01.029Z,6.22
2022-11-19T00:14:32.349Z,6.40
2022-11-19T00:16:03.830Z,6.38
2022-11-19T00:17:35.385Z,6.32
2022-11-19T00:19:06.563Z,6.31
2022-11-19T00:20:37.803Z,6.49
2022-11-19T00:22:09.009Z,6.93
2022-11-19T00:23:40.587Z,6.36
2022-11-19T00:25:11.973Z,6.30
2022-11-19T00:26:43.348Z,6.53
2022-11-19T00:28:14.579Z,6.55
2022-11-19T00:29:45.927Z,6.81
2022-11-19T00:31:17.260Z,6.73
2022-11-19T00:32:48.470Z,6.68
2022-11-19T00:34:19.715Z,6.32
2022-11-19T00:35:51.162Z,7.06
2022-11-19T00:37:22.901Z,6.99
2022-11-19T00:38:54.289Z,7.48
2022-11-19T00:40:25.971Z,6.93
2022-11-19T00:41:57.240Z,7.23
2022-11-19T00:43:28.521Z,7.19
2022-11-19T00:44:59.787Z,7.71
2022-11-19T00:46:31.063Z,7.67
2022-11-19T00:48:07.253Z,7.48
2022-11-19T00:49:38.864Z,7.28
2022-11-19T00:51:10.374Z,7.92
2022-11-19T00:52:41.612Z,8.47
2022-11-19T00:54:17.879Z,8.07
2022-11-19T00:55:49.325Z,7.98
2022-11-19T00:57:20.741Z,8.16
2022-11-19T00:58:52.101Z,8.86
2022-11-19T01:00:33.394Z,8.50
2022-11-19T01:02:04.530Z,8.27
2022-11-19T01:03:35.937Z,8.58
2022-11-19T01:05:12.309Z,8.81
2022-11-19T01:06:44.944Z,8.88
2022-11-19T01:08:16.186Z,8.41
2022-11-19T01:09:47.569Z,8.63
2022-11-19T01:11:18.750Z,9.53
2022-11-19T01:12:49.989Z,9.69
2022-11-19T01:14:21.192Z,9.39
2022-11-19T01:15:52.540Z,9.83
2022-11-19T01:17:23.875Z,9.66
2022-11-19T01:18:55.219Z,9.82
2022-11-19T01:20:26.630Z,10.75
2022-11-19T01:21:58.080Z,11.22
2022-11-19T01:23:29.486Z,11.21
2022-11-19T01:25:00.910Z,11.36
2022-11-19T01:26:32.087Z,11.43
2022-11-19T01:28:03.309Z,10.98
2022-11-19T01:29:34.486Z,10.89
2022-11-19T01:31:05.674Z,11.66
2022-11-19T01:32:36.920Z,11.41
2022-11-19T01:34:08.213Z,11.49
2022-11-19T01:35:39.592Z,12.08
2022-11-19T01:37:10.856Z,12.32
2022-11-19T01:38:42.060Z,12.57
2022-11-19T01:40:13.231Z,12.72
2022-11-19T01:41:44.372Z,12.20
2022-11-19T01:43:15.732Z,12.82
2022-11-19T01:44:46.932Z,13.02
2022-11-19T01:46:18.277Z,14.27
2022-11-19T01:47:49.691Z,13.68
2022-11-19T01:49:21.526Z,12.96
2022-11-19T01:50:52.925Z,13.96
2022-11-19T01:52:24.474Z,14.13
2022-11-19T01:53:55.703Z,14.58
2022-11-19T01:55:28.234Z,14.66
2022-11-19T01:56:59.568Z,14.62
2022-11-19T01:58:30.791Z,13.26
2022-11-19T02:00:02.060Z,14.77
2022-11-19T02:01:34.116Z,15.52
2022-11-19T02:03:05.352Z,16.21
2022-11-19T02:04:36.613Z,16.15
2022-11-19T02:06:07.952Z,16.36
2022-11-19T02:07:39.227Z,15.22
2022-11-19T02:09:10.501Z,15.34
2022-11-19T02:10:41.833Z,15.83
2022-11-19T02:12:13.217Z,16.20
2022-11-19T02:13:44.450Z,16.83
2022-11-19T02:15:15.666Z,17.73
2022-11-19T02:16:47.110Z,15.50
2022-11-19T02:18:18.315Z,16.24
2022-11-19T02:19:49.543Z,16.65
2022-11-19T02:21:20.770Z,15.78
2022-11-19T02:22:51.987Z,18.15
2022-11-19T02:24:23.270Z,18.01
2022-11-19T02:25:54.730Z,18.19
2022-11-19T02:27:26.248Z,18.22
2022-11-19T02:28:57.658Z,16.76
2022-11-19T02:30:28.864Z,16.93
2022-11-19T02:32:00.097Z,17.90
2022-11-19T02:33:31.618Z,15.86
2022-11-19T02:35:03.048Z,18.40
2022-11-19T02:36:34.485Z,18.77
2022-11-19T02:38:05.967Z,18.77
2022-11-19T02:39:37.236Z,18.73
2022-11-19T02:41:08.443Z,17.69
2022-11-19T02:42:39.942Z,18.20
2022-11-19T02:44:11.056Z,18.31
2022-11-19T02:45:42.223Z,18.99
2022-11-19T02:47:13.387Z,18.49
2022-11-19T02:48:44.553Z,17.47
2022-11-19T02:50:15.763Z,17.03
2022-11-19T02:51:47.094Z,18.16
2022-11-19T02:53:18.506Z,17.53
2022-11-19T02:54:49.750Z,18.53
2022-11-19T02:56:21.084Z,17.95
2022-11-19T02:57:52.258Z,17.13
2022-11-19T02:59:23.557Z,18.04
2022-11-19T03:00:55.706Z,17.48
2022-11-19T03:02:27.050Z,18.18
2022-11-19T03:03:58.362Z,19.01
2022-11-19T03:05:29.519Z,18.29
2022-11-19T03:07:00.796Z,18.94
2022-11-19T03:08:32.071Z,17.76
2022-11-19T03:10:03.264Z,18.28
2022-11-19T03:11:34.525Z,18.95
2022-11-19T03:13:05.743Z,17.64
2022-11-19T03:14:37.086Z,19.52
2022-11-19T03:16:08.251Z,19.18
2022-11-19T03:17:39.760Z,18.66
2022-11-19T03:19:11.662Z,18.54
2022-11-19T03:20:42.853Z,20.00
2022-11-19T03:22:14.147Z,19.68
2022-11-19T03:23:45.308Z,19.46
2022-11-19T03:25:16.747Z,19.71
2022-11-19T03:26:47.962Z,19.44
2022-11-19T03:28:19.269Z,20.21
2022-11-19T03:29:51.726Z,20.18
2022-11-19T03:31:23.160Z,18.98
2022-11-19T03:32:54.445Z,19.62
2022-11-19T03:34:26.068Z,20.04
2022-11-19T03:35:57.446Z,20.01
2022-11-19T03:37:29.453Z,20.10
2022-11-19T03:39:00.705Z,20.83
2022-11-19T03:40:31.854Z,18.76
2022-11-19T03:42:03.078Z,18.93
2022-11-19T03:43:34.495Z,19.20
2022-11-19T03:45:05.829Z,19.71
2022-11-19T03:46:37.151Z,20.44
2022-11-19T03:48:08.440Z,21.34
2022-11-19T03:49:39.789Z,21.15
2022-11-19T03:51:10.978Z,20.92
2022-11-19T03:52:42.203Z,21.40
2022-11-19T03:54:13.494Z,20.44
2022-11-19T03:55:44.758Z,20.68
2022-11-19T03:57:16.018Z,21.82
2022-11-19T03:58:47.291Z,21.32
2022-11-19T04:00:18.586Z,21.04
2022-11-19T04:01:50.012Z,20.09
2022-11-19T04:03:21.228Z,20.93
2022-11-19T04:04:52.471Z,20.23
2022-11-19T04:06:23.683Z,20.65
2022-11-19T04:08:00.037Z,20.38
2022-11-19T04:09:31.173Z,20.52
2022-11-19T04:12:33.509Z,19.75
2022-11-19T04:14:04.793Z,19.89
2022-11-19T04:15:36.094Z,20.51
2022-11-19T04:17:07.331Z,20.03
2022-11-19T04:18:38.683Z,20.87
2022-11-19T04:20:09.882Z,19.49
2022-11-19T04:21:41.258Z,20.81
2022-11-19T04:23:12.424Z,20.88
2022-11-19T04:24:43.980Z,21.18
2022-11-19T04:26:15.273Z,20.52
2022-11-19T04:27:46.818Z,18.40
2022-11-19T04:29:18.331Z,20.87
2022-11-19T04:30:49.853Z,21.58
2022-11-19T04:32:21.260Z,20.61
2022-11-19T04:33:52.591Z,20.77
2022-11-19T04:35:23.795Z,20.75
2022-11-19T04:36:54.995Z,21.59
2022-11-19T04:38:26.944Z,20.84
2022-11-19T04:39:58.578Z,20.52
2022-11-19T04:41:29.884Z,21.29
2022-11-19T04:43:01.084Z,20.67
2022-11-19T04:44:32.303Z,22.10
2022-11-19T04:46:03.610Z,20.34
2022-11-19T04:47:34.860Z,18.97
2022-11-19T04:49:06.009Z,19.15
2022-11-19T04:50:39.294Z,18.83
2022-11-19T04:52:10.448Z,21.17
2022-11-19T04:53:56.613Z,21.46
2022-11-19T04:55:28.062Z,21.77
2022-11-19T04:56:59.446Z,20.86
2022-11-19T04:58:30.744Z,19.75
2022-11-19T05:00:02.061Z,20.26
2022-11-19T05:01:33.315Z,19.87
2022-11-19T05:03:04.760Z,20.25
2022-11-19T05:04:35.961Z,20.41
2022-11-19T05:06:07.163Z,21.59
2022-11-19T05:07:38.354Z,21.81
2022-11-19T05:09:09.579Z,20.46
2022-11-19T05:10:40.771Z,21.27
2022-11-19T05:12:11.951Z,22.25
2022-11-19T05:13:43.271Z,23.05
2022-11-19T05:15:14.634Z,24.33
2022-11-19T05:16:45.838Z,23.68
2022-11-19T05:18:17.127Z,23.59
2022-11-19T05:19:48.368Z,22.23
2022-11-19T05:21:19.681Z,22.44
2022-11-19T05:22:51.231Z,22.64
2022-11-19T05:24:22.518Z,23.91
2022-11-19T05:25:53.738Z,23.02
2022-11-19T05:27:25.058Z,22.70
2022-11-19T05:28:56.491Z,22.01
2022-11-19T05:30:27.741Z,24.63
2022-11-19T05:31:59.199Z,22.39
2022-11-19T05:33:34.014Z,22.92
2022-11-19T05:35:06.155Z,20.65
2022-11-19T05:36:37.656Z,20.24
2022-11-19T05:38:08.995Z,24.97
2022-11-19T05:39:40.444Z,24.39
2022-11-19T05:41:11.720Z,23.69
2022-11-19T05:42:42.990Z,23.69
2022-11-19T05:44:14.245Z,22.78
2022-11-19T05:45:45.790Z,21.84
2022-11-19T05:47:17.181Z,23.22
2022-11-19T05:48:48.592Z,23.03
2022-11-19T05:50:20.013Z,25.80
2022-11-19T05:51:56.222Z,24.30
2022-11-19T05:53:27.624Z,26.22
2022-11-19T05:54:58.815Z,25.56
2022-11-19T05:56:29.952Z,25.15
2022-11-19T05:58:01.180Z,26.06
2022-11-19T05:59:32.609Z,24.30
2022-11-19T06:01:03.972Z,22.96
2022-11-19T06:02:35.222Z,21.79
2022-11-19T06:04:06.469Z,24.01
2022-11-19T06:05:40.598Z,20.91
2022-11-19T06:07:12.119Z,25.95
2022-11-19T06:08:43.426Z,25.10
2022-11-19T06:10:14.612Z,24.45
2022-11-19T06:11:45.828Z,24.71
2022-11-19T06:13:17.246Z,23.78
2022-11-19T06:17:19.982Z,25.04
2022-11-19T06:18:51.843Z,25.68
2022-11-19T06:20:23.510Z,23.32
2022-11-19T06:22:35.188Z,23.44
2022-11-19T06:24:17.500Z,23.48
2022-11-19T06:25:49.056Z,23.57
2022-11-19T06:27:41.008Z,22.96
2022-11-19T06:29:36.981Z,22.87
2022-11-19T06:31:31.830Z,20.47
2022-11-19T06:35:10.615Z,22.88
2022-11-19T06:39:01.168Z,22.53
2022-11-19T06:40:32.742Z,23.03
2022-11-19T06:42:11.066Z,22.95
2022-11-19T06:43:42.585Z,21.86
2022-11-19T06:45:23.826Z,22.35
2022-11-19T06:46:55.129Z,21.77
2022-11-19T06:48:26.427Z,21.87
2022-11-19T06:49:57.647Z,20.27
2022-11-19T06:51:28.867Z,20.54
2022-11-19T06:53:21.874Z,22.84
2022-11-19T06:54:53.302Z,20.60
2022-11-19T06:56:24.510Z,21.76
2022-11-19T06:57:55.904Z,20.30
2022-11-19T06:59:46.648Z,21.37
2022-11-19T07:01:18.211Z,21.41
2022-11-19T07:02:49.358Z,21.99
2022-11-19T07:04:20.582Z,22.40
2022-11-19T07:05:51.832Z,20.98
2022-11-19T07:07:23.090Z,20.13
2022-11-19T07:08:54.419Z,20.79
2022-11-19T07:10:25.662Z,19.11
2022-11-19T07:11:56.875Z,21.34
2022-11-19T07:13:28.168Z,21.49
2022-11-19T07:15:04.007Z,21.33
2022-11-19T07:16:36.033Z,20.79
2022-11-19T07:18:27.371Z,21.37
2022-11-19T07:19:59.489Z,21.50
2022-11-19T07:21:52.187Z,20.02
2022-11-19T07:23:44.670Z,20.85
2022-11-19T07:25:16.032Z,20.72
2022-11-19T07:27:38.836Z,21.03
2022-11-19T07:29:20.407Z,19.99
2022-11-19T07:31:16.685Z,20.31
2022-11-19T07:32:48.395Z,17.44
2022-11-19T07:34:37.613Z,18.99
2022-11-19T07:36:11.615Z,19.86
2022-11-19T07:37:46.852Z,20.06
2022-11-19T07:39:18.745Z,19.90
2022-11-19T07:41:01.784Z,20.91
2022-11-19T07:42:33.173Z,19.66
2022-11-19T07:44:04.441Z,20.61
2022-11-19T07:45:35.665Z,19.52
2022-11-19T07:47:06.974Z,18.81
2022-11-19T07:48:38.296Z,19.54
2022-11-19T07:50:19.612Z,20.06
2022-11-19T07:52:33.396Z,19.93
2022-11-19T07:54:28.432Z,20.89
2022-11-19T07:56:25.677Z,20.31
2022-11-19T07:58:24.433Z,20.40
2022-11-19T08:00:23.598Z,18.97
2022-11-19T08:02:26.879Z,18.05
2022-11-19T08:04:25.030Z,17.79
2022-11-19T08:05:58.023Z,18.33
2022-11-19T08:07:54.132Z,19.08
2022-11-19T08:09:25.337Z,18.92
2022-11-19T08:10:56.759Z,19.32
2022-11-19T08:12:51.588Z,17.76
2022-11-19T08:14:22.930Z,16.70
2022-11-19T08:15:59.676Z,16.35
2022-11-19T08:17:31.057Z,17.05
2022-11-19T08:19:23.254Z,16.40
2022-11-19T08:20:54.866Z,17.33
2022-11-19T08:22:26.585Z,16.50
2022-11-19T08:23:58.088Z,16.96
2022-11-19T08:25:29.891Z,15.07
2022-11-19T08:27:02.006Z,16.22
2022-11-19T08:28:33.545Z,15.58
2022-11-19T08:30:05.094Z,16.40
2022-11-19T08:31:36.359Z,14.76
2022-11-19T08:33:23.071Z,14.83
2022-11-19T08:34:59.511Z,13.67
2022-11-19T08:36:30.912Z,13.26
2022-11-19T08:40:17.696Z,13.69
2022-11-19T08:42:19.135Z,13.48
2022-11-19T08:44:05.686Z,14.29
2022-11-19T08:45:37.007Z,14.63
2022-11-19T08:47:09.084Z,14.10
2022-11-19T08:48:55.528Z,14.04
2022-11-19T08:50:32.269Z,13.53
2022-11-19T08:52:34.330Z,13.68
2022-11-19T08:54:05.643Z,13.20
2022-11-19T08:55:46.876Z,13.42
2022-11-19T08:57:23.081Z,12.76
2022-11-19T08:58:58.473Z,13.05
2022-11-19T09:00:32.730Z,12.78
2022-11-19T09:02:04.082Z,12.94
2022-11-19T09:03:35.344Z,12.66
2022-11-19T09:05:08.673Z,13.10
2022-11-19T09:07:13.233Z,12.51
2022-11-19T09:08:44.822Z,11.09
2022-11-19T09:10:16.063Z,12.08
2022-11-19T09:11:52.351Z,12.54
2022-11-19T09:13:23.582Z,11.47
2022-11-19T09:14:54.957Z,11.34
2022-11-19T09:16:26.183Z,12.68
2022-11-19T09:18:02.466Z,12.33
2022-11-19T09:19:33.841Z,11.88
2022-11-19T09:21:05.228Z,11.95
2022-11-19T09:22:36.557Z,12.16
2022-11-19T09:24:07.873Z,12.09
2022-11-19T09:25:39.497Z,12.65
2022-11-19T09:27:11.010Z,11.82
2022-11-19T09:28:42.302Z,11.64
2022-11-19T09:30:13.513Z,11.42
2022-11-19T09:31:44.841Z,11.77
2022-11-19T09:33:16.047Z,12.17
2022-11-19T09:34:47.266Z,12.06
2022-11-19T09:36:18.526Z,12.85
2022-11-19T09:37:49.740Z,12.67
2022-11-19T09:39:21.277Z,11.85
2022-11-19T09:40:52.462Z,12.16
2022-11-19T09:42:23.971Z,11.23
2022-11-19T09:43:56.187Z,11.36
2022-11-19T09:45:27.763Z,12.44
2022-11-19T09:46:58.974Z,12.17
2022-11-19T09:48:30.301Z,11.80
2022-11-19T09:50:01.536Z,11.76
2022-11-19T09:51:32.766Z,11.09
2022-11-19T09:53:04.027Z,10.97
2022-11-19T09:54:35.282Z,11.96
2022-11-19T09:56:06.452Z,12.46
2022-11-19T09:57:37.815Z,12.74
2022-11-19T09:59:09.483Z,12.18
2022-11-19T10:00:41.406Z,12.32
2022-11-19T10:02:12.839Z,11.94
2022-11-19T10:03:44.253Z,11.03
2022-11-19T10:05:15.436Z,11.10
2022-11-19T10:06:46.849Z,11.47
2022-11-19T10:08:18.256Z,11.67
2022-11-19T10:09:49.650Z,11.57
2022-11-19T10:11:20.959Z,11.50
2022-11-19T10:12:52.263Z,11.66
2022-11-19T10:14:23.483Z,11.64
2022-11-19T10:15:54.811Z,10.79
2022-11-19T10:17:26.180Z,10.68
2022-11-19T10:18:57.553Z,11.08
2022-11-19T10:20:28.847Z,10.31
2022-11-19T10:22:00.360Z,11.54
2022-11-19T10:23:31.705Z,11.42
2022-11-19T10:25:02.889Z,11.61
2022-11-19T10:26:34.279Z,11.59
2022-11-19T10:28:05.478Z,11.22
2022-11-19T10:29:36.686Z,11.20
2022-11-19T10:31:08.223Z,11.45
2022-11-19T10:32:39.425Z,11.02
2022-11-19T10:34:11.027Z,10.45
2022-11-19T10:35:42.343Z,10.74
2022-11-19T10:37:13.671Z,11.15
2022-11-19T10:38:50.004Z,11.31
2022-11-19T10:40:22.682Z,11.17
2022-11-19T10:41:54.280Z,11.25
2022-11-19T10:43:25.483Z,10.95
2022-11-19T10:44:56.665Z,10.49
2022-11-19T10:46:28.050Z,11.03
2022-11-19T10:48:03.317Z,11.09
2022-11-19T10:49:37.401Z,10.42
2022-11-19T10:51:08.703Z,10.53
2022-11-19T10:52:39.941Z,11.08
2022-11-19T10:54:11.230Z,10.63
2022-11-19T10:55:42.379Z,10.66
2022-11-19T10:57:14.122Z,11.43
2022-11-19T10:58:45.390Z,10.55
2022-11-19T11:00:16.589Z,9.83
2022-11-19T11:01:48.157Z,11.25
2022-11-19T11:03:19.513Z,10.85
2022-11-19T11:04:50.932Z,10.75
2022-11-19T11:06:22.137Z,10.16
2022-11-19T11:07:53.575Z,10.14
2022-11-19T11:09:24.942Z,10.46
2022-11-19T11:10:56.146Z,10.37
2022-11-19T11:12:27.464Z,10.33
2022-11-19T11:13:58.796Z,10.59
2022-11-19T11:15:30.019Z,10.11
2022-11-19T11:17:01.347Z,10.23
2022-11-19T11:18:32.784Z,10.12
2022-11-19T11:20:03.997Z,10.54
2022-11-19T11:21:35.481Z,10.12
2022-11-19T11:23:06.967Z,10.71
2022-11-19T11:24:43.221Z,10.20
2022-11-19T11:26:14.654Z,9.41
2022-11-19T11:27:46.097Z,8.94
2022-11-19T11:29:17.760Z,8.80
2022-11-19T11:30:49.382Z,9.67
2022-11-19T11:32:20.551Z,9.79
2022-11-19T11:33:51.881Z,9.25
2022-11-19T11:35:23.156Z,9.98
2022-11-19T11:36:54.456Z,9.80
2022-11-19T11:38:25.709Z,9.94
2022-11-19T11:39:56.990Z,9.74
2022-11-19T11:43:33.750Z,9.72
2022-11-19T11:45:04.987Z,10.06
2022-11-19T11:46:36.315Z,10.50
2022-11-19T11:48:07.652Z,10.40
2022-11-19T11:49:38.911Z,9.99
2022-11-19T11:51:10.297Z,9.94
2022-11-19T11:52:41.555Z,9.35
2022-11-19T11:54:17.820Z,9.99
2022-11-19T11:55:49.590Z,9.71
2022-11-19T11:57:20.825Z,9.79
2022-11-19T11:58:52.167Z,10.14
2022-11-19T12:00:23.330Z,9.93
2022-11-19T12:01:54.744Z,10.14
2022-11-19T12:03:26.132Z,10.70
2022-11-19T12:04:57.481Z,9.71
2022-11-19T12:06:28.871Z,9.72
2022-11-19T12:08:00.076Z,10.00
2022-11-19T12:09:31.515Z,10.22
2022-11-19T12:11:02.816Z,10.42
2022-11-19T12:12:34.389Z,9.90
2022-11-19T12:14:10.784Z,9.27
2022-11-19T12:15:42.418Z,10.19
2022-11-19T12:17:13.699Z,9.92
2022-11-19T12:18:45.051Z,9.44
2022-11-19T12:20:16.625Z,10.36
2022-11-19T12:21:48.073Z,10.42
2022-11-19T12:23:19.269Z,9.73
2022-11-19T12:24:50.684Z,10.34
2022-11-19T12:26:22.056Z,10.49
2022-11-19T12:27:53.576Z,10.67
2022-11-19T12:29:25.014Z,10.04
2022-11-19T12:30:56.350Z,10.28
2022-11-19T12:32:27.625Z,10.37
2022-11-19T12:33:59.074Z,10.38
2022-11-19T12:35:30.395Z,10.74
2022-11-19T12:37:01.862Z,10.25
2022-11-19T12:38:33.326Z,10.33
2022-11-19T12:40:04.565Z,10.54
2022-11-19T12:41:35.770Z,10.51
2022-11-19T12:43:06.944Z,10.17
2022-11-19T12:44:38.159Z,11.01
2022-11-19T12:46:09.567Z,10.09
2022-11-19T12:47:44.740Z,9.95
2022-11-19T12:49:17.179Z,9.41
2022-11-19T12:50:48.735Z,9.52
2022-11-19T12:52:20.001Z,9.85
2022-11-19T12:53:51.341Z,10.74
2022-11-19T12:55:22.564Z,9.73
2022-11-19T12:56:53.887Z,10.12
2022-11-19T12:58:25.202Z,9.64
2022-11-19T12:59:56.437Z,9.80
2022-11-19T13:01:27.728Z,10.00
2022-11-19T13:02:58.928Z,9.90
2022-11-19T13:04:30.145Z,9.70
2022-11-19T13:06:01.639Z,10.00
2022-11-19T13:07:33.044Z,9.79
2022-11-19T13:09:04.346Z,10.26
2022-11-19T13:10:35.720Z,10.59
2022-11-19T13:12:07.089Z,10.22
2022-11-19T13:13:38.364Z,10.20
2022-11-19T13:15:09.540Z,10.25
2022-11-19T13:16:40.809Z,10.30
2022-11-19T13:18:12.109Z,10.14
2022-11-19T13:19:43.306Z,10.15
2022-11-19T13:21:14.614Z,9.83
2022-11-19T13:22:45.843Z,8.85
2022-11-19T13:24:17.098Z,9.83
2022-11-19T13:25:48.381Z,9.10
2022-11-19T13:27:23.195Z,9.86
2022-11-19T13:28:54.901Z,9.87
2022-11-19T13:30:26.107Z,10.26
2022-11-19T13:31:57.375Z,8.91
2022-11-19T13:33:28.701Z,9.54
2022-11-19T13:35:00.349Z,10.01
2022-11-19T13:36:31.982Z,9.90
2022-11-19T13:38:03.210Z,10.02
2022-11-19T13:39:34.654Z,9.33
2022-11-19T13:41:05.929Z,10.21
2022-11-19T13:42:37.562Z,9.82
2022-11-19T13:44:10.177Z,9.80
2022-11-19T13:45:41.686Z,9.46
2022-11-19T13:47:12.974Z,10.16
2022-11-19T13:48:44.270Z,9.93
2022-11-19T13:50:15.736Z,10.15
2022-11-19T13:51:47.033Z,9.95
2022-11-19T13:54:02.575Z,9.93
2022-11-19T13:55:35.379Z,9.86
2022-11-19T13:57:07.693Z,9.89
2022-11-19T13:58:39.676Z,9.24
2022-11-19T14:00:11.621Z,9.39
2022-11-19T14:01:43.389Z,9.42
2022-11-19T14:03:15.210Z,9.72
2022-11-19T14:04:46.914Z,9.97
2022-11-19T14:06:18.634Z,9.84
2022-11-19T14:07:51.657Z,9.74
2022-11-19T14:09:30.893Z,9.75
2022-11-19T14:11:07.714Z,10.10
2022-11-19T14:12:39.687Z,10.22
2022-11-19T14:14:47.231Z,9.96
2022-11-19T14:16:20.779Z,10.41
2022-11-19T14:17:53.102Z,10.27
2022-11-19T14:19:25.004Z,10.40
2022-11-19T14:21:06.407Z,9.86
2022-11-19T14:23:00.873Z,9.83
2022-11-19T14:24:32.325Z,9.40
2022-11-19T14:26:03.679Z,10.17
2022-11-19T14:27:56.044Z,10.08
2022-11-19T14:29:27.316Z,9.57
2022-11-19T14:30:58.674Z,9.45
2022-11-19T14:32:30.160Z,9.84
2022-11-19T14:34:01.603Z,9.49
2022-11-19T14:35:33.111Z,9.80
2022-11-19T14:37:04.481Z,9.86
2022-11-19T14:38:35.976Z,9.94
2022-11-19T14:40:17.521Z,9.84
2022-11-19T14:41:49.617Z,9.48
2022-11-19T14:43:21.545Z,9.45
2022-11-19T14:45:03.086Z,9.58
2022-11-19T14:46:39.651Z,10.05
2022-11-19T14:48:11.243Z,9.97
2022-11-19T14:49:52.685Z,9.37
2022-11-19T14:51:24.536Z,9.68
2022-11-19T14:52:56.214Z,10.15
2022-11-19T14:54:31.674Z,10.35
2022-11-19T14:56:14.738Z,10.19
2022-11-19T14:57:46.472Z,9.47
2022-11-19T14:59:28.122Z,9.85
2022-11-19T15:01:09.612Z,9.63
2022-11-19T15:02:41.176Z,10.28
2022-11-19T15:04:12.519Z,9.73
2022-11-19T15:05:54.007Z,9.95
2022-11-19T15:07:25.782Z,10.13
2022-11-19T15:08:57.579Z,9.98
2022-11-19T15:10:28.986Z,9.83
2022-11-19T15:12:00.464Z,9.53
2022-11-19T15:13:32.595Z,9.81
2022-11-19T15:15:04.013Z,10.20
2022-11-19T15:16:35.381Z,10.11
2022-11-19T15:18:23.442Z,10.24
2022-11-19T15:20:02.141Z,10.01
2022-11-19T15:21:33.845Z,10.00
2022-11-19T15:23:10.675Z,9.72
2022-11-19T15:25:03.800Z,9.92
2022-11-19T15:26:35.149Z,9.85
2022-11-19T15:28:30.341Z,9.62
2022-11-19T15:30:03.490Z,9.83
2022-11-19T15:31:34.796Z,9.75
2022-11-19T15:33:06.087Z,10.03
2022-11-19T15:34:49.253Z,10.38
2022-11-19T15:36:28.230Z,10.12
2022-11-19T15:37:59.509Z,10.23
2022-11-19T15:39:30.912Z,9.61
2022-11-19T15:41:12.322Z,9.55
2022-11-19T15:43:22.174Z,9.45
2022-11-19T15:44:57.039Z,9.84
2022-11-19T15:48:42.524Z,10.11
2022-11-19T15:50:30.229Z,10.36
2022-11-19T15:52:18.351Z,10.19
2022-11-19T15:53:50.323Z,10.35
2022-11-19T15:55:21.723Z,10.43
2022-11-19T15:56:53.101Z,10.06
2022-11-19T15:58:24.390Z,9.96
2022-11-19T15:59:55.794Z,10.17
2022-11-19T16:01:27.130Z,10.32
2022-11-19T16:02:58.705Z,10.45
2022-11-19T16:04:29.982Z,11.18
2022-11-19T16:06:06.507Z,10.42
2022-11-19T16:07:38.262Z,9.88
2022-11-19T16:09:09.455Z,10.22
2022-11-19T16:10:50.868Z,10.44
2022-11-19T16:12:22.565Z,10.54
2022-11-19T16:14:13.878Z,10.88
2022-11-19T16:15:45.372Z,11.03
2022-11-19T16:18:00.382Z,10.77
2022-11-19T16:19:31.998Z,10.63
2022-11-19T16:21:08.449Z,10.55
2022-11-19T16:22:39.728Z,10.83
2022-11-19T16:24:11.968Z,10.99
2022-11-19T16:25:43.355Z,11.00
2022-11-19T16:27:14.566Z,11.62
2022-11-19T16:28:45.795Z,10.91
2022-11-19T16:30:17.336Z,11.29
2022-11-19T16:31:49.404Z,11.80
2022-11-19T16:33:20.917Z,11.54
2022-11-19T16:34:52.142Z,12.42
2022-11-19T16:36:23.282Z,12.11
2022-11-19T16:37:54.653Z,12.41
2022-11-19T16:39:26.475Z,11.71
2022-11-19T16:40:57.963Z,12.71
2022-11-19T16:42:29.388Z,12.09
2022-11-19T16:44:00.548Z,11.79
2022-11-19T16:45:32.054Z,11.58
2022-11-19T16:47:08.405Z,11.75
2022-11-19T16:48:39.826Z,11.61
2022-11-19T16:50:11.087Z,11.36
2022-11-19T16:51:42.403Z,11.55
2022-11-19T16:53:13.648Z,12.08
2022-11-19T16:54:45.189Z,12.21
2022-11-19T16:56:17.108Z,12.13
2022-11-19T16:57:48.683Z,11.83
2022-11-19T16:59:20.798Z,11.80
2022-11-19T17:00:52.035Z,11.81
2022-11-19T17:02:23.511Z,11.49
2022-11-19T17:03:54.824Z,11.63
2022-11-19T17:05:26.214Z,11.92
2022-11-19T17:06:57.777Z,11.79
2022-11-19T17:08:28.978Z,11.90
2022-11-19T17:10:00.488Z,11.88
2022-11-19T17:11:32.114Z,11.56
2022-11-19T17:13:03.503Z,11.78
2022-11-19T17:14:35.142Z,12.08
2022-11-19T17:16:16.581Z,12.27
2022-11-19T17:17:53.959Z,12.30
2022-11-19T17:19:25.365Z,12.29
2022-11-19T17:20:56.536Z,12.92
2022-11-19T17:22:27.729Z,12.63
2022-11-19T17:23:59.115Z,12.50
2022-11-19T17:25:30.263Z,12.64
2022-11-19T17:27:06.424Z,12.90
2022-11-19T17:28:37.622Z,12.75
2022-11-19T17:30:14.530Z,12.70
2022-11-19T17:31:45.995Z,12.97
2022-11-19T17:33:17.625Z,12.31
2022-11-19T17:34:53.935Z,12.47
2022-11-19T17:36:35.290Z,12.51
2022-11-19T17:38:06.551Z,12.80
2022-11-19T17:39:37.957Z,12.68
2022-11-19T17:41:09.325Z,12.52
2022-11-19T17:42:40.800Z,12.68
2022-11-19T17:44:17.093Z,13.22
2022-11-19T17:45:48.504Z,14.50
2022-11-19T17:47:22.754Z,14.20
2022-11-19T17:48:54.428Z,16.87
2022-11-19T17:50:25.730Z,15.33
2022-11-19T17:52:03.195Z,14.45
2022-11-19T17:53:34.592Z,14.25
2022-11-19T17:55:05.935Z,14.13
2022-11-19T17:56:37.101Z,14.03
2022-11-19T17:58:08.644Z,13.43
2022-11-19T17:59:40.182Z,13.39
2022-11-19T18:01:12.082Z,13.03
2022-11-19T18:02:43.421Z,13.11
2022-11-19T18:04:14.806Z,12.99
2022-11-19T18:05:46.036Z,12.64
2022-11-19T18:07:17.300Z,13.30
2022-11-19T18:08:48.729Z,13.47
2022-11-19T18:10:20.281Z,13.13
2022-11-19T18:11:51.683Z,12.70
2022-11-19T18:13:23.114Z,12.73
2022-11-19T18:14:59.311Z,12.51
2022-11-19T18:16:33.098Z,13.53
2022-11-19T18:18:04.370Z,13.09
2022-11-19T18:19:35.884Z,13.54
2022-11-19T18:21:07.389Z,13.27
2022-11-19T18:22:38.636Z,13.25
2022-11-19T18:24:14.856Z,13.23
2022-11-19T18:25:46.269Z,13.44
2022-11-19T18:27:17.532Z,13.53
2022-11-19T18:28:49.333Z,13.37
2022-11-19T18:30:20.601Z,13.27
2022-11-19T18:31:51.778Z,13.19
2022-11-19T18:33:23.064Z,13.60
2022-11-19T18:34:57.948Z,13.17
2022-11-19T18:36:32.134Z,13.33
2022-11-19T18:38:03.314Z,13.55
2022-11-19T18:39:34.508Z,13.87
2022-11-19T18:41:05.742Z,14.03
2022-11-19T18:42:36.981Z,14.57
2022-11-19T18:44:08.329Z,14.33
2022-11-19T18:45:40.050Z,13.64
2022-11-19T18:47:11.414Z,13.68
2022-11-19T18:48:42.725Z,12.98
2022-11-19T18:50:14.095Z,13.21
2022-11-19T18:51:45.431Z,13.07
2022-11-19T18:53:16.568Z,13.44
2022-11-19T18:54:47.816Z,13.44
2022-11-19T18:56:20.000Z,13.58
2022-11-19T18:57:51.425Z,14.29
2022-11-19T18:59:23.005Z,13.50
2022-11-19T19:00:54.615Z,13.52
2022-11-19T19:02:26.106Z,13.62
2022-11-19T19:03:57.421Z,13.23
2022-11-19T19:05:29.484Z,13.66
2022-11-19T19:07:00.926Z,13.78
2022-11-19T19:08:32.176Z,13.72
2022-11-19T19:10:03.675Z,14.01
2022-11-19T19:11:34.919Z,14.47
2022-11-19T19:13:11.337Z,16.66
2022-11-19T19:14:42.823Z,19.23
2022-11-19T19:16:14.154Z,19.27
2022-11-19T19:17:50.605Z,16.87
2022-11-19T19:19:22.462Z,17.00
2022-11-19T19:20:54.109Z,16.96
2022-11-19T19:22:25.417Z,16.18
2022-11-19T19:23:56.699Z,17.07
2022-11-19T19:25:27.906Z,17.04
2022-11-19T19:26:59.196Z,17.55
2022-11-19T19:28:30.447Z,17.65
2022-11-19T19:30:01.896Z,16.31
2022-11-19T19:31:38.087Z,15.98
2022-11-19T19:33:09.409Z,16.41
2022-11-19T19:34:40.579Z,16.08
2022-11-19T19:36:11.833Z,16.22
2022-11-19T19:37:43.582Z,16.10
2022-11-19T19:39:14.848Z,16.57
2022-11-19T19:40:46.184Z,17.34
2022-11-19T19:42:17.673Z,17.17
2022-11-19T19:43:48.978Z,17.92
2022-11-19T19:45:20.175Z,20.00
2022-11-19T19:46:51.714Z,18.53
2022-11-19T19:48:23.093Z,18.36
2022-11-19T19:50:04.531Z,18.04
2022-11-19T19:51:35.752Z,17.73
2022-11-19T19:53:07.006Z,18.15
2022-11-19T19:55:04.976Z,17.76
2022-11-19T19:56:36.294Z,16.84
2022-11-19T19:58:07.565Z,16.76
2022-11-19T19:59:38.869Z,16.05
2022-11-19T20:01:10.210Z,16.06
2022-11-19T20:02:41.719Z,16.53
2022-11-19T20:04:12.983Z,16.37
2022-11-19T20:05:44.270Z,15.81
2022-11-19T20:07:15.685Z,15.59
2022-11-19T20:08:46.868Z,15.57
2022-11-19T20:10:18.213Z,16.05
2022-11-19T20:11:49.886Z,15.95
2022-11-19T20:13:56.504Z,15.61
2022-11-19T20:15:27.846Z,15.68
2022-11-19T20:16:59.190Z,15.79
2022-11-19T20:18:30.361Z,15.96
2022-11-19T20:20:01.839Z,16.07
2022-11-19T20:21:38.314Z,15.43
2022-11-19T20:23:09.665Z,15.59
2022-11-19T20:24:46.266Z,15.74
2022-11-19T20:26:22.938Z,15.65